createdAt,value
2023-04-26T00:00:06.188Z,6
2023-04-26T00:01:06.628Z,6
2023-04-26T00:02:06.986Z,6
2023-04-26T00:03:06.387Z,6
2023-04-26T00:04:07.731Z,6
2023-04-26T00:05:06.241Z,6
2023-04-26T00:06:06.253Z,5.9
2023-04-26T00:07:06.207Z,5.9
2023-04-26T00:08:06.155Z,5.9
2023-04-26T00:10:06.988Z,5.9
2023-04-26T00:11:06.278Z,5.8
2023-04-26T00:12:06.560Z,5.8
2023-04-26T00:13:06.737Z,5.8
2023-04-26T00:14:06.161Z,5.8
2023-04-26T00:15:06.583Z,5.8
2023-04-26T00:16:06.777Z,5.8
2023-04-26T00:17:06.865Z,5.8
2023-04-26T00:19:06.494Z,5.7
2023-04-26T00:20:06.941Z,5.7
2023-04-26T00:21:06.690Z,5.7
2023-04-26T00:22:05.795Z,5
2023-04-26T00:23:06.211Z,5
2023-04-26T00:24:06.783Z,5.7
2023-04-26T00:25:06.022Z,5.7
2023-04-26T00:26:06.269Z,5.7
2023-04-26T00:27:06.668Z,5.8
2023-04-26T00:28:06.829Z,5.8
2023-04-26T00:29:06.136Z,5.8
2023-04-26T00:30:06.350Z,5
2023-04-26T00:31:06.417Z,5.8
2023-04-26T00:32:05.899Z,5.8
2023-04-26T00:33:06.641Z,5.8
2023-04-26T00:35:05.574Z,5.8
2023-04-26T00:36:06.077Z,5.8
2023-04-26T00:37:06.402Z,5.8
2023-04-26T00:38:05.432Z,5.8
2023-04-26T00:39:06.370Z,5.8
2023-04-26T00:40:06.995Z,5.8
2023-04-26T00:41:06.087Z,5.8
2023-04-26T00:42:06.348Z,5
2023-04-26T00:43:06.489Z,5.8
2023-04-26T00:44:06.610Z,5.8
2023-04-26T00:45:06.013Z,5.8
2023-04-26T00:46:07.088Z,5.8
2023-04-26T00:47:07.049Z,5.8
2023-04-26T00:48:06.417Z,5.8
2023-04-26T00:49:06.276Z,5.9
2023-04-26T00:50:06.784Z,5.8
2023-04-26T00:51:06.982Z,5.8
2023-04-26T00:52:06.204Z,5.8
2023-04-26T00:53:06.476Z,5.8
2023-04-26T00:54:06.624Z,5.8
2023-04-26T00:55:06.074Z,5.8
2023-04-26T00:56:06.501Z,5.8
2023-04-26T00:57:06.469Z,5.8
2023-04-26T00:58:06.900Z,5.8
2023-04-26T00:59:06.040Z,5.8
2023-04-26T01:00:06.445Z,5.8
2023-04-26T01:01:06.315Z,5.8
2023-04-26T01:02:06.903Z,5
2023-04-26T01:03:07.313Z,5.8
2023-04-26T01:04:06.568Z,5.8
2023-04-26T01:06:07.066Z,5.8
2023-04-26T01:07:05.889Z,5.8
2023-04-26T01:08:06.928Z,5.8
2023-04-26T01:09:05.941Z,5.8
2023-04-26T01:10:06.391Z,5.8
2023-04-26T01:11:06.650Z,5.8
2023-04-26T01:12:06.106Z,5.8
2023-04-26T01:16:06.399Z,5.8
2023-04-26T01:17:06.777Z,5.8
2023-04-26T01:18:07.075Z,5.8
2023-04-26T01:19:06.183Z,5.8
2023-04-26T01:20:06.643Z,5.8
2023-04-26T01:21:06.320Z,5.8
2023-04-26T01:22:06.693Z,5.8
2023-04-26T01:23:05.977Z,5.8
2023-04-26T01:24:06.336Z,5.8
2023-04-26T01:25:06.787Z,5.8
2023-04-26T01:26:06.837Z,5.8
2023-04-26T01:27:06.781Z,5.8
2023-04-26T01:28:06.402Z,5.8
2023-04-26T01:29:06.568Z,5.8
2023-04-26T01:33:06.308Z,5
2023-04-26T01:34:06.513Z,5.7
2023-04-26T01:35:07.042Z,5.7
2023-04-26T01:36:05.856Z,5.7
2023-04-26T01:37:05.322Z,5.7
2023-04-26T01:38:06.729Z,5.7
2023-04-26T01:39:06.764Z,5
2023-04-26T01:40:06.909Z,5
2023-04-26T01:41:06.416Z,5.7
2023-04-26T01:42:06.695Z,5.7
2023-04-26T01:43:06.973Z,5.7
2023-04-26T01:44:06.468Z,5.7
2023-04-26T01:45:06.802Z,5.7
2023-04-26T01:46:06.283Z,5.7
2023-04-26T01:48:06.789Z,5.6
2023-04-26T01:49:06.800Z,5.6
2023-04-26T01:50:05.788Z,5.6
2023-04-26T01:51:06.208Z,5.6
2023-04-26T01:52:06.335Z,5.6
2023-04-26T01:53:06.756Z,5.6
2023-04-26T01:54:06.960Z,5.6
2023-04-26T01:55:06.283Z,5.6
2023-04-26T01:56:06.579Z,5.6
2023-04-26T01:57:07.089Z,5.6
2023-04-26T01:58:05.952Z,5.6
2023-04-26T01:59:06.552Z,5.6
2023-04-26T02:00:06.653Z,5.6
2023-04-26T02:01:06.668Z,5.6
2023-04-26T02:02:07.116Z,5.6
2023-04-26T02:03:05.810Z,5.6
2023-04-26T02:04:06.967Z,5.6
2023-04-26T02:06:05.595Z,5.6
2023-04-26T02:07:06.839Z,5.6
2023-04-26T02:08:05.865Z,5.6
2023-04-26T02:09:06.466Z,5.6
2023-04-26T02:10:06.769Z,5.6
2023-04-26T02:11:05.992Z,5.6
2023-04-26T02:12:06.173Z,5.6
2023-04-26T02:13:06.413Z,5.6
2023-04-26T02:14:06.541Z,5.5
2023-04-26T02:15:07.035Z,5.6
2023-04-26T02:16:06.750Z,5.6
2023-04-26T02:17:06.134Z,5.5
2023-04-26T02:18:06.530Z,5.6
2023-04-26T02:19:06.641Z,5.6
2023-04-26T02:20:06.937Z,5.6
2023-04-26T02:24:06.141Z,5.5
2023-04-26T02:25:06.366Z,5.5
2023-04-26T02:26:06.227Z,5.5
2023-04-26T02:27:06.631Z,5.5
2023-04-26T02:28:07.056Z,5.5
2023-04-26T02:29:06.241Z,5.4
2023-04-26T02:30:05.276Z,5.4
2023-04-26T02:31:06.505Z,5.4
2023-04-26T02:32:06.603Z,5.4
2023-04-26T02:33:07.187Z,5.4
2023-04-26T02:34:06.298Z,5.4
2023-04-26T02:35:06.436Z,5.4
2023-04-26T02:36:06.315Z,5.4
2023-04-26T02:42:06.735Z,5.3
2023-04-26T02:43:06.103Z,5.3
2023-04-26T02:44:06.360Z,5.3
2023-04-26T02:45:06.776Z,5.3
2023-04-26T02:46:06.828Z,5.3
2023-04-26T02:47:06.379Z,5.3
2023-04-26T02:48:06.695Z,5.2
2023-04-26T02:49:06.764Z,5.2
2023-04-26T02:50:06.076Z,5.2
2023-04-26T02:51:06.021Z,5
2023-04-26T02:52:06.371Z,5.2
2023-04-26T02:53:06.499Z,5.2
2023-04-26T02:54:09.183Z,5.2
2023-04-26T02:55:05.966Z,5
2023-04-26T02:56:06.378Z,5.2
2023-04-26T02:57:06.786Z,5.2
2023-04-26T02:58:06.026Z,5.2
2023-04-26T02:59:05.653Z,5.2
2023-04-26T03:00:07.036Z,5.1
2023-04-26T03:01:06.702Z,5.1
2023-04-26T03:02:07.042Z,5.1
2023-04-26T03:03:06.523Z,5.1
2023-04-26T03:04:06.660Z,5
2023-04-26T03:05:06.758Z,5.1
2023-04-26T03:06:07.006Z,5
2023-04-26T03:07:06.064Z,5.1
2023-04-26T03:08:06.484Z,5
2023-04-26T03:09:06.863Z,4
2023-04-26T03:10:06.140Z,5
2023-04-26T03:11:06.365Z,5
2023-04-26T03:12:06.525Z,5
2023-04-26T03:13:07.154Z,5
2023-04-26T03:14:06.069Z,5
2023-04-26T03:15:06.411Z,5
2023-04-26T03:16:06.613Z,5
2023-04-26T03:17:06.810Z,5
2023-04-26T03:18:06.352Z,5
2023-04-26T03:19:06.153Z,5
2023-04-26T03:22:06.125Z,4
2023-04-26T03:23:05.123Z,4.9
2023-04-26T03:24:06.336Z,4.9
2023-04-26T03:25:06.547Z,4.9
2023-04-26T03:26:04.891Z,4.9
2023-04-26T03:27:06.355Z,5
2023-04-26T03:28:06.638Z,5
2023-04-26T03:29:06.822Z,5
2023-04-26T03:30:06.131Z,5
2023-04-26T03:31:06.089Z,5
2023-04-26T03:32:06.293Z,5
2023-04-26T03:33:06.694Z,5
2023-04-26T03:34:06.765Z,5
2023-04-26T03:36:06.260Z,5
2023-04-26T03:37:06.678Z,5
2023-04-26T03:38:06.874Z,5
2023-04-26T03:39:06.221Z,5
2023-04-26T03:40:06.628Z,5
2023-04-26T03:41:06.345Z,5
2023-04-26T03:42:06.640Z,5
2023-04-26T03:43:06.882Z,5
2023-04-26T03:44:06.253Z,5
2023-04-26T03:45:06.477Z,5
2023-04-26T03:46:06.737Z,5
2023-04-26T03:47:06.871Z,5
2023-04-26T03:49:06.194Z,5
2023-04-26T03:50:06.787Z,5
2023-04-26T03:51:06.578Z,5
2023-04-26T03:52:06.717Z,5
2023-04-26T03:53:06.070Z,5
2023-04-26T03:54:06.335Z,5
2023-04-26T03:55:06.684Z,5
2023-04-26T03:56:06.873Z,5
2023-04-26T04:01:06.314Z,5.1
2023-04-26T04:02:06.585Z,5.1
2023-04-26T04:03:07.436Z,5.1
2023-04-26T04:04:06.420Z,5.1
2023-04-26T04:05:06.778Z,5.1
2023-04-26T04:06:06.833Z,5.1
2023-04-26T04:07:06.691Z,5.1
2023-04-26T04:08:06.012Z,5
2023-04-26T04:09:06.248Z,5.1
2023-04-26T04:10:06.519Z,5
2023-04-26T04:11:06.905Z,5.1
2023-04-26T04:12:05.982Z,5.1
2023-04-26T04:13:06.205Z,5.1
2023-04-26T04:14:06.412Z,5.1
2023-04-26T04:15:06.751Z,5.1
2023-04-26T04:16:07.235Z,5.1
2023-04-26T04:17:06.115Z,5.1
2023-04-26T04:18:06.413Z,5.1
2023-04-26T04:19:06.599Z,5.1
2023-04-26T04:20:06.808Z,5
2023-04-26T04:21:06.107Z,5.2
2023-04-26T04:22:06.884Z,5.2
2023-04-26T04:23:05.952Z,5.1
2023-04-26T04:24:06.418Z,5.1
2023-04-26T04:25:06.737Z,5.2
2023-04-26T04:26:06.788Z,5
2023-04-26T04:27:07.067Z,5.2
2023-04-26T04:28:06.168Z,5.2
2023-04-26T04:29:06.539Z,5.2
2023-04-26T04:30:06.780Z,5.2
2023-04-26T04:31:07.109Z,5.2
2023-04-26T04:32:05.957Z,5
2023-04-26T04:33:06.703Z,5.2
2023-04-26T04:35:06.015Z,5.2
2023-04-26T04:36:06.028Z,5
2023-04-26T04:37:06.508Z,5.2
2023-04-26T04:38:06.552Z,5.2
2023-04-26T04:39:07.115Z,5.2
2023-04-26T04:40:06.365Z,5.2
2023-04-26T04:41:06.664Z,5.2
2023-04-26T04:42:06.874Z,5.2
2023-04-26T04:43:06.042Z,5.2
2023-04-26T04:44:06.375Z,5.2
2023-04-26T04:45:06.740Z,5.3
2023-04-26T04:46:07.032Z,5.3
2023-04-26T04:47:06.169Z,5.2
2023-04-26T04:48:06.584Z,5.2
2023-04-26T04:49:06.424Z,5.2
2023-04-26T04:53:06.376Z,5.2
2023-04-26T04:54:06.424Z,5.4
2023-04-26T04:55:06.772Z,5.3
2023-04-26T04:56:05.995Z,5.3
2023-04-26T04:57:06.329Z,5.3
2023-04-26T04:58:06.647Z,5.3
2023-04-26T04:59:06.886Z,5.4
2023-04-26T05:00:06.411Z,5.3
2023-04-26T05:01:06.016Z,5.4
2023-04-26T05:02:06.418Z,5.4
2023-04-26T05:03:06.910Z,5.4
2023-04-26T05:04:07.365Z,5.4
2023-04-26T05:07:06.900Z,5.4
2023-04-26T05:08:05.943Z,5.4
2023-04-26T05:09:06.296Z,5.4
2023-04-26T05:10:06.729Z,5.5
2023-04-26T05:11:06.934Z,5.5
2023-04-26T05:12:06.186Z,5.5
2023-04-26T05:13:06.030Z,5.6
2023-04-26T05:14:06.537Z,5.6
2023-04-26T05:15:06.885Z,5.6
2023-04-26T05:17:06.066Z,5
2023-04-26T05:18:06.534Z,5
2023-04-26T05:19:09.458Z,5.5
2023-04-26T05:21:06.968Z,5.6
2023-04-26T05:22:06.100Z,5.6
2023-04-26T05:23:06.531Z,5.6
2023-04-26T05:24:06.653Z,5.6
2023-04-26T05:25:06.003Z,5.7
2023-04-26T05:26:06.232Z,5.7
2023-04-26T05:27:06.406Z,5.8
2023-04-26T05:28:06.574Z,6.2
2023-04-26T05:29:06.740Z,6.3
2023-04-26T05:30:06.924Z,5
2023-04-26T05:31:07.531Z,6.9
2023-04-26T05:32:07.194Z,6.9
2023-04-26T05:33:06.222Z,7
2023-04-26T05:34:06.626Z,7.2
2023-04-26T05:35:06.783Z,5
2023-04-26T05:36:06.905Z,7.2
2023-04-26T05:37:06.093Z,5
2023-04-26T05:38:06.312Z,8.8
2023-04-26T05:39:06.597Z,8.8
2023-04-26T05:40:06.893Z,10.1
2023-04-26T05:41:06.021Z,10.7
2023-04-26T05:42:06.091Z,10.7
2023-04-26T05:43:06.516Z,11.3
2023-04-26T05:44:06.961Z,11.9
2023-04-26T05:45:06.199Z,11.9
2023-04-26T05:46:06.728Z,6
2023-04-26T05:47:06.741Z,12.8
2023-04-26T05:48:06.198Z,13.4
2023-04-26T05:49:06.228Z,13.8
2023-04-26T05:50:06.707Z,14.3
2023-04-26T05:51:06.905Z,14.2
2023-04-26T05:52:06.022Z,14.4
2023-04-26T05:53:06.299Z,14.7
2023-04-26T05:54:06.392Z,15.1
2023-04-26T05:55:06.662Z,15.6
2023-04-26T05:56:06.769Z,16.1
2023-04-26T05:57:06.085Z,16.8
2023-04-26T05:58:06.180Z,16.8
2023-04-26T05:59:06.629Z,16.4
2023-04-26T06:00:06.618Z,16.6
2023-04-26T06:01:06.089Z,16.3
2023-04-26T06:02:06.319Z,15.3
2023-04-26T06:03:06.742Z,14.6
2023-04-26T06:04:08.047Z,14.3
2023-04-26T06:06:06.465Z,13.2
2023-04-26T06:07:05.836Z,13.2
2023-04-26T06:08:06.168Z,12.5
2023-04-26T06:09:06.259Z,12.1
2023-04-26T06:10:06.683Z,11.8
2023-04-26T06:11:06.879Z,11.8
2023-04-26T06:12:06.128Z,11.5
2023-04-26T06:13:06.182Z,11.2
2023-04-26T06:14:07.813Z,11
2023-04-26T06:15:06.974Z,10.9
2023-04-26T06:16:06.407Z,10.7
2023-04-26T06:17:06.907Z,10.6
2023-04-26T06:18:07.192Z,10.6
2023-04-26T06:19:06.220Z,10.5
2023-04-26T06:20:06.505Z,10.4
2023-04-26T06:21:06.636Z,10.4
2023-04-26T06:22:06.765Z,10.4
2023-04-26T06:23:06.189Z,10.4
2023-04-26T06:24:06.502Z,10.4
2023-04-26T06:25:06.916Z,10.8
2023-04-26T06:26:06.690Z,10.8
2023-04-26T06:30:05.888Z,12
2023-04-26T06:31:06.499Z,12
2023-04-26T06:32:06.561Z,12
2023-04-26T06:33:06.465Z,12.7
2023-04-26T06:34:07.111Z,13
2023-04-26T06:35:06.924Z,13
2023-04-26T06:36:06.206Z,13.9
2023-04-26T06:37:06.440Z,14.3
2023-04-26T06:38:06.550Z,14.9
2023-04-26T06:39:06.161Z,15.8
2023-04-26T06:40:06.621Z,16.2
2023-04-26T06:41:06.739Z,16.9
2023-04-26T06:42:06.960Z,17.5
2023-04-26T06:43:06.054Z,17.8
2023-04-26T06:44:06.068Z,18
2023-04-26T06:45:06.607Z,17.7
2023-04-26T06:46:07.128Z,17.5
2023-04-26T06:47:06.196Z,17
2023-04-26T06:48:06.575Z,16.2
2023-04-26T06:49:06.673Z,16.2
2023-04-26T06:50:06.177Z,15
2023-04-26T06:51:06.556Z,7
2023-04-26T06:52:06.760Z,7
2023-04-26T06:53:06.844Z,15.7
2023-04-26T06:54:06.040Z,16
2023-04-26T06:55:06.207Z,16
2023-04-26T06:56:06.443Z,16.1
2023-04-26T06:57:06.754Z,16.3
2023-04-26T06:58:06.940Z,16.3
2023-04-26T06:59:06.352Z,16.1
2023-04-26T07:00:06.540Z,16.1
2023-04-26T07:01:06.101Z,16
2023-04-26T07:02:06.621Z,16
2023-04-26T07:03:06.811Z,16.2
2023-04-26T07:04:06.223Z,7
2023-04-26T07:05:06.933Z,15.8
2023-04-26T07:07:06.988Z,16.4
2023-04-26T07:08:06.087Z,16.8
2023-04-26T07:09:06.449Z,16.8
2023-04-26T07:10:06.886Z,17.1
2023-04-26T07:11:06.430Z,17
2023-04-26T07:12:06.962Z,17
2023-04-26T07:13:07.358Z,16.9
2023-04-26T07:14:06.077Z,16.6
2023-04-26T07:15:06.654Z,8
2023-04-26T07:16:06.864Z,16.3
2023-04-26T07:17:05.848Z,16
2023-04-26T07:18:06.746Z,15.6
2023-04-26T07:19:06.782Z,15.5
2023-04-26T07:20:06.945Z,14.9
2023-04-26T07:21:06.264Z,14.9
2023-04-26T07:22:06.494Z,14.5
2023-04-26T07:23:06.751Z,14.4
2023-04-26T07:24:05.990Z,14.4
2023-04-26T07:25:06.365Z,14.2
2023-04-26T07:26:06.765Z,8
2023-04-26T07:27:06.888Z,13.9
2023-04-26T07:28:06.041Z,13.9
2023-04-26T07:29:06.465Z,13.8
2023-04-26T07:30:06.702Z,13.8
2023-04-26T07:31:09.715Z,13.6
2023-04-26T07:33:06.243Z,13.3
2023-04-26T07:34:06.404Z,13.4
2023-04-26T07:35:06.717Z,13.3
2023-04-26T07:36:06.601Z,13.4
2023-04-26T07:37:06.860Z,13.4
2023-04-26T07:38:06.360Z,13.4
2023-04-26T07:39:06.425Z,13.2
2023-04-26T07:40:06.750Z,13.1
2023-04-26T07:41:05.908Z,13.1
2023-04-26T07:42:06.270Z,13
2023-04-26T07:43:06.680Z,13
2023-04-26T07:44:06.818Z,13
2023-04-26T07:47:06.557Z,13.1
2023-04-26T07:48:06.977Z,13.2
2023-04-26T07:49:06.251Z,13.2
2023-04-26T07:50:05.939Z,13.2
2023-04-26T07:51:06.272Z,13.2
2023-04-26T07:52:06.743Z,13.2
2023-04-26T07:53:06.385Z,13.3
2023-04-26T07:54:06.802Z,13.3
2023-04-26T07:55:06.232Z,13.3
2023-04-26T07:56:06.089Z,13.2
2023-04-26T07:57:06.450Z,13.2
2023-04-26T07:58:06.768Z,13.2
2023-04-26T08:01:06.472Z,12.9
2023-04-26T08:02:06.721Z,12.9
2023-04-26T08:03:06.731Z,8
2023-04-26T08:04:07.722Z,12.8
2023-04-26T08:05:07.121Z,12.8
2023-04-26T08:07:05.995Z,12.4
2023-04-26T08:08:06.506Z,12.4
2023-04-26T08:09:06.643Z,12.4
2023-04-26T08:10:06.967Z,12.4
2023-04-26T08:11:06.224Z,12.4
2023-04-26T08:12:06.410Z,12.4
2023-04-26T08:13:06.668Z,12.2
2023-04-26T08:14:05.220Z,12.2
2023-04-26T08:15:06.660Z,12
2023-04-26T08:16:06.732Z,8
2023-04-26T08:17:05.948Z,8
2023-04-26T08:18:06.345Z,12.1
2023-04-26T08:19:06.520Z,12.3
2023-04-26T08:20:06.825Z,12.4
2023-04-26T08:21:06.850Z,12.5
2023-04-26T08:22:06.056Z,12.6
2023-04-26T08:23:06.460Z,12.6
2023-04-26T08:24:06.622Z,12.6
2023-04-26T08:25:06.945Z,12.6
2023-04-26T08:26:06.396Z,12.5
2023-04-26T08:27:06.854Z,12.5
2023-04-26T08:29:05.857Z,12.4
2023-04-26T08:30:06.388Z,12.3
2023-04-26T08:31:07.035Z,12.1
2023-04-26T08:32:06.144Z,12.1
2023-04-26T08:33:06.466Z,12.1
2023-04-26T08:34:06.362Z,12.1
2023-04-26T08:35:06.737Z,12.1
2023-04-26T08:36:06.018Z,12.2
2023-04-26T08:37:06.314Z,12.2
2023-04-26T08:38:06.607Z,12.2
2023-04-26T08:39:06.730Z,12.4
2023-04-26T08:40:07.041Z,12.4
2023-04-26T08:41:06.266Z,12.2
2023-04-26T08:42:06.429Z,12.2
2023-04-26T08:43:06.822Z,12.1
2023-04-26T08:44:05.982Z,12.2
2023-04-26T08:45:06.344Z,12.2
2023-04-26T08:46:06.581Z,12.3
2023-04-26T08:47:06.794Z,12.3
2023-04-26T08:48:08.728Z,12.4
2023-04-26T08:49:06.464Z,12.7
2023-04-26T08:50:06.940Z,12.8
2023-04-26T08:51:06.164Z,13
2023-04-26T08:52:06.203Z,13
2023-04-26T08:53:06.644Z,13.1
2023-04-26T08:54:09.025Z,13.1
2023-04-26T08:55:07.026Z,10
2023-04-26T08:57:06.570Z,12.9
2023-04-26T08:58:06.778Z,12.9
2023-04-26T08:59:06.207Z,12.8
2023-04-26T09:00:06.308Z,12.8
2023-04-26T09:01:06.605Z,12.8
2023-04-26T09:02:07.297Z,12.8
2023-04-26T09:03:05.983Z,13.2
2023-04-26T09:04:06.806Z,13.2
2023-04-26T09:05:06.230Z,13.1
2023-04-26T09:07:06.501Z,13
2023-04-26T09:08:06.725Z,12.8
2023-04-26T09:09:06.902Z,12.8
2023-04-26T09:10:06.203Z,12.8
2023-04-26T09:11:06.232Z,12.8
2023-04-26T09:12:06.743Z,12.6
2023-04-26T09:13:06.024Z,12.5
2023-04-26T09:14:06.373Z,12.5
2023-04-26T09:15:06.396Z,12.5
2023-04-26T09:16:09.377Z,12.6
2023-04-26T09:20:09.824Z,12.9
2023-04-26T09:21:06.472Z,13
2023-04-26T09:22:06.663Z,12.9
2023-04-26T09:23:06.977Z,12.7
2023-04-26T09:24:06.133Z,12.7
2023-04-26T09:25:06.436Z,12.8
2023-04-26T09:26:05.912Z,12.6
2023-04-26T09:27:06.278Z,12.6
2023-04-26T09:28:06.441Z,12.4
2023-04-26T09:29:06.817Z,12.4
2023-04-26T09:30:06.056Z,12.4
2023-04-26T09:31:06.645Z,12.2
2023-04-26T09:32:06.919Z,12.1
2023-04-26T09:33:06.282Z,12
2023-04-26T09:34:06.357Z,12
2023-04-26T09:35:06.568Z,12
2023-04-26T09:36:06.476Z,11.9
2023-04-26T09:37:06.932Z,11.9
2023-04-26T09:38:14.443Z,11.9
2023-04-26T09:40:06.609Z,11.7
2023-04-26T09:41:06.689Z,11.6
2023-04-26T09:42:06.548Z,11.6
2023-04-26T09:43:06.034Z,11.6
2023-04-26T09:44:06.345Z,11.5
2023-04-26T09:45:06.691Z,11.5
2023-04-26T09:49:06.075Z,11.9
2023-04-26T09:50:06.399Z,11.9
2023-04-26T09:51:06.465Z,11.8
2023-04-26T09:52:06.681Z,11.8
2023-04-26T09:53:05.912Z,11.7
2023-04-26T09:54:06.248Z,11.7
2023-04-26T09:55:06.558Z,11.7
2023-04-26T09:56:06.344Z,11.8
2023-04-26T09:58:06.246Z,12
2023-04-26T09:59:06.570Z,12
2023-04-26T10:00:06.117Z,12.1
2023-04-26T10:01:06.320Z,12.2
2023-04-26T10:02:06.385Z,12.2
2023-04-26T10:03:07.083Z,12.2
2023-04-26T10:04:06.066Z,12.3
2023-04-26T10:05:06.925Z,12.5
2023-04-26T10:06:06.594Z,12.5
2023-04-26T10:07:06.209Z,12.6
2023-04-26T10:08:06.433Z,12.6
2023-04-26T10:09:06.546Z,12.7
2023-04-26T10:10:06.865Z,12.7
2023-04-26T10:12:06.218Z,10
2023-04-26T10:13:06.607Z,10
2023-04-26T10:14:06.815Z,12.8
2023-04-26T10:15:06.073Z,12.8
2023-04-26T10:16:06.639Z,12.8
2023-04-26T10:17:06.991Z,12.7
2023-04-26T10:18:07.174Z,12.7
2023-04-26T10:19:06.054Z,12.7
2023-04-26T10:20:06.552Z,12.7
2023-04-26T10:21:06.336Z,12.6
2023-04-26T10:22:06.638Z,12.6
2023-04-26T10:23:06.067Z,12.6
2023-04-26T10:24:06.270Z,12.6
2023-04-26T10:25:06.707Z,12.6
2023-04-26T10:28:06.122Z,12.4
2023-04-26T10:29:08.203Z,10
2023-04-26T10:30:06.591Z,10
2023-04-26T10:31:06.694Z,12.5
2023-04-26T10:32:07.311Z,12.5
2023-04-26T10:33:06.220Z,12.6
2023-04-26T10:34:06.464Z,12.6
2023-04-26T10:35:06.683Z,12.5
2023-04-26T10:36:06.376Z,12.5
2023-04-26T10:37:06.576Z,12.5
2023-04-26T10:38:06.909Z,12.5
2023-04-26T10:39:05.929Z,12.5
2023-04-26T10:40:06.133Z,12.5
2023-04-26T10:41:06.200Z,12.5
2023-04-26T10:42:06.512Z,12.6
2023-04-26T10:43:06.754Z,12.7
2023-04-26T10:44:06.013Z,12.7
2023-04-26T10:45:06.411Z,12.9
2023-04-26T10:46:06.545Z,13
2023-04-26T10:47:06.605Z,13.1
2023-04-26T10:48:07.116Z,13.2
2023-04-26T10:49:06.447Z,13.4
2023-04-26T10:50:09.598Z,13.4
2023-04-26T10:52:05.790Z,13.2
2023-04-26T10:53:06.477Z,13
2023-04-26T10:54:06.591Z,13
2023-04-26T10:55:06.716Z,13
2023-04-26T10:56:06.831Z,12.8
2023-04-26T10:57:06.016Z,12.8
2023-04-26T10:58:06.323Z,12.7
2023-04-26T10:59:33.738Z,12.7
2023-04-26T11:00:05.941Z,12.6
2023-04-26T11:01:07.073Z,12.6
2023-04-26T11:02:06.142Z,12.4
2023-04-26T11:03:06.782Z,9
2023-04-26T11:04:07.180Z,12.3
2023-04-26T11:05:06.213Z,12.1
2023-04-26T11:06:06.457Z,12.1
2023-04-26T11:07:06.762Z,12
2023-04-26T11:08:05.911Z,12.1
2023-04-26T11:09:06.162Z,12.2
2023-04-26T11:10:06.581Z,12.4
2023-04-26T11:11:06.513Z,12.8
2023-04-26T11:12:06.764Z,12.8
2023-04-26T11:13:06.854Z,13.2
2023-04-26T11:14:06.107Z,13.4
2023-04-26T11:15:06.401Z,13.4
2023-04-26T11:18:07.249Z,13.7
2023-04-26T11:19:06.087Z,13.7
2023-04-26T11:20:06.578Z,13.7
2023-04-26T11:21:06.585Z,13.6
2023-04-26T11:22:06.886Z,13.5
2023-04-26T11:23:07.056Z,13.5
2023-04-26T11:24:06.612Z,13.5
2023-04-26T11:25:05.998Z,13.4
2023-04-26T11:26:06.304Z,13.5
2023-04-26T11:27:06.302Z,13.4
2023-04-26T11:28:06.917Z,13.4
2023-04-26T11:30:06.195Z,13.4
2023-04-26T11:31:06.814Z,13.4
2023-04-26T11:32:06.588Z,13.4
2023-04-26T11:33:07.214Z,13.4
2023-04-26T11:34:06.251Z,13.4
2023-04-26T11:35:06.447Z,13.4
2023-04-26T11:36:06.627Z,13.4
2023-04-26T11:37:05.906Z,13.4
2023-04-26T11:38:06.074Z,13.4
2023-04-26T11:39:06.384Z,13.3
2023-04-26T11:40:06.845Z,10
2023-04-26T11:42:06.568Z,13.6
2023-04-26T11:43:06.593Z,13.6
2023-04-26T11:44:06.517Z,13.6
2023-04-26T11:45:06.238Z,13.6
2023-04-26T11:49:05.812Z,13.6
2023-04-26T11:50:06.003Z,13.7
2023-04-26T11:51:06.618Z,13.7
2023-04-26T11:52:05.733Z,13.7
2023-04-26T11:53:06.022Z,13.7
2023-04-26T11:54:06.481Z,13.8
2023-04-26T11:55:06.837Z,13.8
2023-04-26T11:56:06.990Z,14
2023-04-26T11:57:06.342Z,14.1
2023-04-26T11:58:06.522Z,14.3
2023-04-26T11:59:06.790Z,14.4
2023-04-26T12:00:07.145Z,14.6
2023-04-26T12:01:06.705Z,14.8
2023-04-26T12:02:07.066Z,15
2023-04-26T12:03:06.573Z,15
2023-04-26T12:04:07.030Z,15
2023-04-26T12:05:07.478Z,14.9
2023-04-26T12:06:06.078Z,14.8
2023-04-26T12:07:06.156Z,14.8
2023-04-26T12:08:06.522Z,14.8
2023-04-26T12:09:06.554Z,14.8
2023-04-26T12:10:05.941Z,14.7
2023-04-26T12:11:06.476Z,14.7
2023-04-26T12:14:06.240Z,14.4
2023-04-26T12:15:06.814Z,14.3
2023-04-26T12:16:18.638Z,14.2
2023-04-26T12:17:05.978Z,14.1
2023-04-26T12:18:06.690Z,13.9
2023-04-26T12:19:06.802Z,13.9
2023-04-26T12:20:07.086Z,13.9
2023-04-26T12:21:06.363Z,13.8
2023-04-26T12:22:06.599Z,13.8
2023-04-26T12:23:06.800Z,13.8
2023-04-26T12:24:05.967Z,14
2023-04-26T12:25:06.471Z,14.1
2023-04-26T12:26:06.791Z,14.2
2023-04-26T12:27:06.761Z,14.3
2023-04-26T12:28:06.219Z,14.4
2023-04-26T12:29:06.363Z,14.5
2023-04-26T12:30:06.844Z,14.5
2023-04-26T12:31:06.784Z,14.6
2023-04-26T12:32:06.218Z,14.5
2023-04-26T12:33:20.927Z,14.4
2023-04-26T12:35:06.762Z,14.2
2023-04-26T12:36:05.928Z,14.2
2023-04-26T12:37:06.376Z,14
2023-04-26T12:38:06.481Z,14
2023-04-26T12:39:06.787Z,14
2023-04-26T12:40:07.240Z,13.9
2023-04-26T12:41:05.949Z,13.8
2023-04-26T12:42:06.384Z,13.8
2023-04-26T12:43:06.515Z,13.7
2023-04-26T12:44:06.754Z,13.7
2023-04-26T12:45:06.200Z,13.7
2023-04-26T12:46:06.341Z,13.7
2023-04-26T12:47:06.525Z,13.7
2023-04-26T12:48:06.196Z,13.7
2023-04-26T12:49:06.114Z,13.7
2023-04-26T12:50:06.547Z,13.7
2023-04-26T12:51:06.879Z,13.8
2023-04-26T12:52:05.910Z,13.8
2023-04-26T12:53:06.341Z,13.9
2023-04-26T12:54:06.556Z,14
2023-04-26T12:55:06.840Z,14
2023-04-26T12:56:05.993Z,14
2023-04-26T12:57:06.197Z,14.1
2023-04-26T12:58:06.732Z,14.1
2023-04-26T12:59:06.018Z,14.1
2023-04-26T13:00:05.959Z,14.1
2023-04-26T13:01:06.486Z,14
2023-04-26T13:02:06.828Z,14
2023-04-26T13:06:06.640Z,14.2
2023-04-26T13:07:06.052Z,14.3
2023-04-26T13:08:06.115Z,14.4
2023-04-26T13:09:06.533Z,12
2023-04-26T13:10:06.755Z,14.5
2023-04-26T13:11:06.262Z,14.6
2023-04-26T13:12:06.372Z,14.6
2023-04-26T13:13:06.583Z,14.6
2023-04-26T13:14:06.942Z,14.6
2023-04-26T13:15:06.407Z,14.6
2023-04-26T13:16:06.706Z,14.5
2023-04-26T13:17:06.976Z,14.4
2023-04-26T13:18:06.378Z,14.4
2023-04-26T13:19:06.533Z,14.4
2023-04-26T13:20:06.796Z,14.4
2023-04-26T13:23:05.988Z,14.4
2023-04-26T13:24:06.473Z,14.4
2023-04-26T13:25:06.536Z,14.4
2023-04-26T13:26:06.843Z,14.4
2023-04-26T13:27:06.414Z,12
2023-04-26T13:28:06.669Z,14.2
2023-04-26T13:29:06.905Z,14
2023-04-26T13:30:06.328Z,14
2023-04-26T13:31:06.721Z,13.9
2023-04-26T13:32:06.708Z,13.7
2023-04-26T13:33:06.347Z,13.7
2023-04-26T13:34:06.524Z,13.7
2023-04-26T13:35:06.838Z,13.6
2023-04-26T13:36:06.608Z,13.6
2023-04-26T13:37:07.047Z,13.7
2023-04-26T13:38:06.054Z,13.8
2023-04-26T13:39:06.329Z,13.9
2023-04-26T13:42:06.588Z,14.2
2023-04-26T13:43:06.770Z,14.2
2023-04-26T13:44:07.019Z,14.2
2023-04-26T13:45:06.387Z,14.2
2023-04-26T13:46:06.381Z,14.2
2023-04-26T13:47:06.547Z,14.3
2023-04-26T13:48:07.112Z,14.2
2023-04-26T13:49:05.957Z,14.2
2023-04-26T13:50:06.195Z,14.1
2023-04-26T13:51:09.341Z,14.1
2023-04-26T13:55:06.050Z,14.1
2023-04-26T13:56:07.615Z,14.1
2023-04-26T13:57:06.862Z,14
2023-04-26T13:58:06.168Z,14.1
2023-04-26T13:59:06.329Z,14.1
2023-04-26T14:00:06.602Z,14.1
2023-04-26T14:01:07.087Z,14.1
2023-04-26T14:02:06.134Z,14.1
2023-04-26T14:03:07.267Z,13.9
2023-04-26T14:04:08.641Z,13.8
2023-04-26T14:05:06.130Z,13.8
2023-04-26T14:06:06.421Z,13.8
2023-04-26T14:07:06.605Z,13.8
2023-04-26T14:08:06.099Z,13.8
2023-04-26T14:09:06.390Z,13.8
2023-04-26T14:10:06.855Z,13.8
2023-04-26T14:11:06.421Z,12
2023-04-26T14:12:11.454Z,13.8
2023-04-26T14:14:06.486Z,13.9
2023-04-26T14:15:06.950Z,14
2023-04-26T14:16:06.388Z,14
2023-04-26T14:17:06.716Z,12
2023-04-26T14:18:06.217Z,14
2023-04-26T14:19:06.308Z,14
2023-04-26T14:20:06.557Z,14.1
2023-04-26T14:21:06.662Z,14.1
2023-04-26T14:22:06.852Z,14.2
2023-04-26T14:23:05.730Z,14.2
2023-04-26T14:24:06.250Z,14.4
2023-04-26T14:25:06.586Z,14.4
2023-04-26T14:26:06.948Z,14.4
2023-04-26T14:27:06.010Z,14.3
2023-04-26T14:28:06.365Z,14.3
2023-04-26T14:29:06.795Z,14.3
2023-04-26T14:31:06.056Z,14.2
2023-04-26T14:32:06.641Z,14.2
2023-04-26T14:33:06.739Z,14.2
2023-04-26T14:34:06.764Z,14.3
2023-04-26T14:35:06.013Z,14.3
2023-04-26T14:36:06.267Z,14.3
2023-04-26T14:37:06.576Z,14.2
2023-04-26T14:38:06.798Z,14.2
2023-04-26T14:39:06.226Z,13
2023-04-26T14:40:06.586Z,14.2
2023-04-26T14:41:06.000Z,13
2023-04-26T14:42:06.468Z,13
2023-04-26T14:43:06.695Z,14.1
2023-04-26T14:44:05.936Z,14.1
2023-04-26T14:45:06.061Z,14.1
2023-04-26T14:46:06.244Z,14.1
2023-04-26T14:47:06.294Z,14.2
2023-04-26T14:48:05.769Z,14.2
2023-04-26T14:49:06.046Z,14.2
2023-04-26T14:50:06.699Z,14.2
2023-04-26T14:54:06.662Z,14.4
2023-04-26T14:55:05.642Z,14.4
2023-04-26T14:56:06.829Z,14.4
2023-04-26T14:57:06.163Z,14.4
2023-04-26T14:58:06.286Z,14.3
2023-04-26T14:59:06.450Z,14.3
2023-04-26T15:00:06.478Z,14.3
2023-04-26T15:01:07.128Z,14.1
2023-04-26T15:02:06.145Z,14.2
2023-04-26T15:03:07.097Z,14.1
2023-04-26T15:04:07.587Z,14.1
2023-04-26T15:06:06.486Z,14.1